sensor_id;sensor_type;location;lat;lon;timestamp;temperature;humidity
19050;DHT22;9657;45.940;12.840;2023-05-07T00:01:15;21.40;66.50
19050;DHT22;9657;45.940;12.840;2023-05-07T00:03:42;21.40;66.50
19050;DHT22;9657;45.940;12.840;2023-05-07T00:06:11;21.40;66.50
19050;DHT22;9657;45.940;12.840;2023-05-07T00:08:38;21.40;66.60
19050;DHT22;9657;45.940;12.840;2023-05-07T00:11:05;21.40;66.60
19050;DHT22;9657;45.940;12.840;2023-05-07T00:13:32;21.40;66.60
19050;DHT22;9657;45.940;12.840;2023-05-07T00:16:01;21.40;66.60
19050;DHT22;9657;45.940;12.840;2023-05-07T00:18:28;21.40;67.50
19050;DHT22;9657;45.940;12.840;2023-05-07T00:20:55;21.40;66.70
19050;DHT22;9657;45.940;12.840;2023-05-07T00:23:24;21.40;66.70
19050;DHT22;9657;45.940;12.840;2023-05-07T00:25:51;21.40;66.70
19050;DHT22;9657;45.940;12.840;2023-05-07T00:28:18;21.40;66.80
19050;DHT22;9657;45.940;12.840;2023-05-07T00:30:45;21.40;66.80
19050;DHT22;9657;45.940;12.840;2023-05-07T00:33:12;21.40;66.80
19050;DHT22;9657;45.940;12.840;2023-05-07T00:35:39;21.40;66.80
19050;DHT22;9657;45.940;12.840;2023-05-07T00:38:06;21.40;66.80
19050;DHT22;9657;45.940;12.840;2023-05-07T00:40:35;21.40;66.80
19050;DHT22;9657;45.940;12.840;2023-05-07T00:43:02;21.40;66.90
19050;DHT22;9657;45.940;12.840;2023-05-07T00:45:29;21.40;66.90
19050;DHT22;9657;45.940;12.840;2023-05-07T00:47:58;21.40;66.90
19050;DHT22;9657;45.940;12.840;2023-05-07T00:50:26;21.40;66.90
19050;DHT22;9657;45.940;12.840;2023-05-07T00:52:53;21.40;67.00
19050;DHT22;9657;45.940;12.840;2023-05-07T00:55:22;21.40;67.10
19050;DHT22;9657;45.940;12.840;2023-05-07T00:57:51;21.40;67.00
19050;DHT22;9657;45.940;12.840;2023-05-07T01:03:13;21.30;67.00
19050;DHT22;9657;45.940;12.840;2023-05-07T01:05:41;21.30;67.10
19050;DHT22;9657;45.940;12.840;2023-05-07T01:08:09;21.30;67.10
19050;DHT22;9657;45.940;12.840;2023-05-07T01:10:36;21.30;67.10
19050;DHT22;9657;45.940;12.840;2023-05-07T01:13:09;21.30;67.10
19050;DHT22;9657;45.940;12.840;2023-05-07T01:15:37;21.30;67.20
19050;DHT22;9657;45.940;12.840;2023-05-07T01:18:06;21.30;67.20
19050;DHT22;9657;45.940;12.840;2023-05-07T01:20:33;21.30;67.20
19050;DHT22;9657;45.940;12.840;2023-05-07T01:23:03;21.30;67.30
19050;DHT22;9657;45.940;12.840;2023-05-07T01:25:30;21.30;67.20
19050;DHT22;9657;45.940;12.840;2023-05-07T01:27:57;21.30;67.30
19050;DHT22;9657;45.940;12.840;2023-05-07T01:30:27;21.30;67.30
19050;DHT22;9657;45.940;12.840;2023-05-07T01:32:59;21.30;67.30
19050;DHT22;9657;45.940;12.840;2023-05-07T01:35:30;21.30;67.30
19050;DHT22;9657;45.940;12.840;2023-05-07T01:37:59;21.30;67.30
19050;DHT22;9657;45.940;12.840;2023-05-07T01:40:28;21.30;67.70
19050;DHT22;9657;45.940;12.840;2023-05-07T01:42:56;21.30;67.40
19050;DHT22;9657;45.940;12.840;2023-05-07T01:45:23;21.30;67.30
19050;DHT22;9657;45.940;12.840;2023-05-07T01:47:50;21.30;67.40
19050;DHT22;9657;45.940;12.840;2023-05-07T01:50:19;21.30;67.40
19050;DHT22;9657;45.940;12.840;2023-05-07T01:52:47;21.30;67.50
19050;DHT22;9657;45.940;12.840;2023-05-07T01:55:16;21.30;67.50
19050;DHT22;9657;45.940;12.840;2023-05-07T01:57:44;21.30;67.50
19050;DHT22;9657;45.940;12.840;2023-05-07T02:00:12;21.30;67.50
19050;DHT22;9657;45.940;12.840;2023-05-07T02:02:39;21.30;67.50
19050;DHT22;9657;45.940;12.840;2023-05-07T02:05:06;21.30;67.50
19050;DHT22;9657;45.940;12.840;2023-05-07T02:07:34;21.30;67.60
19050;DHT22;9657;45.940;12.840;2023-05-07T02:10:01;21.30;67.60
19050;DHT22;9657;45.940;12.840;2023-05-07T02:12:28;21.30;67.60
19050;DHT22;9657;45.940;12.840;2023-05-07T02:14:57;21.30;67.60
19050;DHT22;9657;45.940;12.840;2023-05-07T02:17:24;21.30;67.70
19050;DHT22;9657;45.940;12.840;2023-05-07T02:19:51;21.30;67.70
19050;DHT22;9657;45.940;12.840;2023-05-07T02:22:18;21.30;67.70
19050;DHT22;9657;45.940;12.840;2023-05-07T02:24:45;21.30;67.70
19050;DHT22;9657;45.940;12.840;2023-05-07T02:27:12;21.30;67.70
19050;DHT22;9657;45.940;12.840;2023-05-07T02:29:39;21.30;67.70
19050;DHT22;9657;45.940;12.840;2023-05-07T02:32:07;21.20;67.70
19050;DHT22;9657;45.940;12.840;2023-05-07T02:34:34;21.20;67.70
19050;DHT22;9657;45.940;12.840;2023-05-07T02:37:01;21.20;67.80
19050;DHT22;9657;45.940;12.840;2023-05-07T02:39:28;21.20;67.80
19050;DHT22;9657;45.940;12.840;2023-05-07T02:41:55;21.20;67.80
19050;DHT22;9657;45.940;12.840;2023-05-07T02:44:22;21.20;67.80
19050;DHT22;9657;45.940;12.840;2023-05-07T02:46:49;21.30;67.90
19050;DHT22;9657;45.940;12.840;2023-05-07T02:49:18;21.20;67.90
19050;DHT22;9657;45.940;12.840;2023-05-07T02:51:45;21.20;67.80
19050;DHT22;9657;45.940;12.840;2023-05-07T02:54:12;21.20;67.80
19050;DHT22;9657;45.940;12.840;2023-05-07T02:56:39;21.20;67.90
19050;DHT22;9657;45.940;12.840;2023-05-07T02:59:06;21.20;67.90
19050;DHT22;9657;45.940;12.840;2023-05-07T03:01:33;21.20;67.90
19050;DHT22;9657;45.940;12.840;2023-05-07T03:04:00;21.20;68.00
19050;DHT22;9657;45.940;12.840;2023-05-07T03:06:28;21.20;68.00
19050;DHT22;9657;45.940;12.840;2023-05-07T03:08:55;21.20;68.00
19050;DHT22;9657;45.940;12.840;2023-05-07T03:11:22;21.20;68.00
19050;DHT22;9657;45.940;12.840;2023-05-07T03:13:49;21.20;68.00
19050;DHT22;9657;45.940;12.840;2023-05-07T03:16:18;21.20;68.00
19050;DHT22;9657;45.940;12.840;2023-05-07T03:18:48;21.20;68.00
19050;DHT22;9657;45.940;12.840;2023-05-07T03:21:15;21.20;68.00
19050;DHT22;9657;45.940;12.840;2023-05-07T03:23:43;21.20;68.10
19050;DHT22;9657;45.940;12.840;2023-05-07T03:26:10;21.20;68.10
19050;DHT22;9657;45.940;12.840;2023-05-07T03:28:38;21.20;68.10
19050;DHT22;9657;45.940;12.840;2023-05-07T03:31:05;21.20;68.10
19050;DHT22;9657;45.940;12.840;2023-05-07T03:33:33;21.20;68.10
19050;DHT22;9657;45.940;12.840;2023-05-07T03:36:00;21.20;68.10
19050;DHT22;9657;45.940;12.840;2023-05-07T03:38:27;21.20;68.10
19050;DHT22;9657;45.940;12.840;2023-05-07T03:40:56;21.20;68.20
19050;DHT22;9657;45.940;12.840;2023-05-07T03:43:23;21.20;68.10
19050;DHT22;9657;45.940;12.840;2023-05-07T03:45:50;21.20;68.20
19050;DHT22;9657;45.940;12.840;2023-05-07T03:48:17;21.20;68.20
19050;DHT22;9657;45.940;12.840;2023-05-07T03:50:44;21.20;68.20
19050;DHT22;9657;45.940;12.840;2023-05-07T03:53:12;21.10;68.20
19050;DHT22;9657;45.940;12.840;2023-05-07T03:55:39;21.10;68.20
19050;DHT22;9657;45.940;12.840;2023-05-07T03:58:07;21.20;68.30
19050;DHT22;9657;45.940;12.840;2023-05-07T04:00:34;21.10;68.20
19050;DHT22;9657;45.940;12.840;2023-05-07T04:03:04;21.10;68.30
19050;DHT22;9657;45.940;12.840;2023-05-07T04:05:31;21.10;68.30
19050;DHT22;9657;45.940;12.840;2023-05-07T04:07:58;21.10;68.30
19050;DHT22;9657;45.940;12.840;2023-05-07T04:10:26;21.20;68.30
19050;DHT22;9657;45.940;12.840;2023-05-07T04:12:53;21.10;68.30
19050;DHT22;9657;45.940;12.840;2023-05-07T04:15:22;21.10;68.30
19050;DHT22;9657;45.940;12.840;2023-05-07T04:17:49;21.10;68.30
19050;DHT22;9657;45.940;12.840;2023-05-07T04:20:17;21.10;68.30
19050;DHT22;9657;45.940;12.840;2023-05-07T04:22:44;21.10;68.30
19050;DHT22;9657;45.940;12.840;2023-05-07T04:25:11;21.10;68.30
19050;DHT22;9657;45.940;12.840;2023-05-07T04:27:38;21.10;68.50
19050;DHT22;9657;45.940;12.840;2023-05-07T04:30:06;21.10;68.40
19050;DHT22;9657;45.940;12.840;2023-05-07T04:32:35;21.10;68.40
19050;DHT22;9657;45.940;12.840;2023-05-07T04:35:03;21.10;68.40
19050;DHT22;9657;45.940;12.840;2023-05-07T04:37:31;21.10;68.50
19050;DHT22;9657;45.940;12.840;2023-05-07T04:39:58;21.10;68.50
19050;DHT22;9657;45.940;12.840;2023-05-07T04:42:25;21.10;68.50
19050;DHT22;9657;45.940;12.840;2023-05-07T04:44:53;21.10;68.50
19050;DHT22;9657;45.940;12.840;2023-05-07T04:47:20;21.10;68.50
19050;DHT22;9657;45.940;12.840;2023-05-07T04:49:49;21.10;68.50
19050;DHT22;9657;45.940;12.840;2023-05-07T04:52:16;21.10;68.60
19050;DHT22;9657;45.940;12.840;2023-05-07T04:54:43;21.10;68.50
19050;DHT22;9657;45.940;12.840;2023-05-07T04:57:09;21.10;68.60
19050;DHT22;9657;45.940;12.840;2023-05-07T04:59:37;21.10;68.60
19050;DHT22;9657;45.940;12.840;2023-05-07T05:02:04;21.10;68.60
19050;DHT22;9657;45.940;12.840;2023-05-07T05:04:31;21.10;68.60
19050;DHT22;9657;45.940;12.840;2023-05-07T05:06:59;21.10;68.50
19050;DHT22;9657;45.940;12.840;2023-05-07T05:09:26;21.10;68.50
19050;DHT22;9657;45.940;12.840;2023-05-07T05:11:54;21.10;68.50
19050;DHT22;9657;45.940;12.840;2023-05-07T05:14:21;21.10;68.50
19050;DHT22;9657;45.940;12.840;2023-05-07T05:16:48;21.10;68.60
19050;DHT22;9657;45.940;12.840;2023-05-07T05:19:15;21.10;68.50
19050;DHT22;9657;45.940;12.840;2023-05-07T05:21:42;21.10;68.60
19050;DHT22;9657;45.940;12.840;2023-05-07T05:24:10;21.10;68.60
19050;DHT22;9657;45.940;12.840;2023-05-07T05:26:37;21.10;68.50
19050;DHT22;9657;45.940;12.840;2023-05-07T05:29:04;21.10;68.50
19050;DHT22;9657;45.940;12.840;2023-05-07T05:31:32;21.10;68.60
19050;DHT22;9657;45.940;12.840;2023-05-07T05:33:59;21.10;68.50
19050;DHT22;9657;45.940;12.840;2023-05-07T05:36:26;21.10;68.50
19050;DHT22;9657;45.940;12.840;2023-05-07T05:38:53;21.10;68.60
19050;DHT22;9657;45.940;12.840;2023-05-07T05:41:21;21.10;68.50
19050;DHT22;9657;45.940;12.840;2023-05-07T05:43:48;21.10;68.50
19050;DHT22;9657;45.940;12.840;2023-05-07T05:46:15;21.10;68.50
19050;DHT22;9657;45.940;12.840;2023-05-07T05:48:42;21.10;68.60
19050;DHT22;9657;45.940;12.840;2023-05-07T05:51:09;21.10;68.50
19050;DHT22;9657;45.940;12.840;2023-05-07T05:53:36;21.10;68.60
19050;DHT22;9657;45.940;12.840;2023-05-07T05:56:04;21.10;68.60
19050;DHT22;9657;45.940;12.840;2023-05-07T05:58:32;21.10;68.60
19050;DHT22;9657;45.940;12.840;2023-05-07T06:01:00;21.10;68.60
19050;DHT22;9657;45.940;12.840;2023-05-07T06:03:28;21.10;68.60
19050;DHT22;9657;45.940;12.840;2023-05-07T06:05:55;21.10;68.50
19050;DHT22;9657;45.940;12.840;2023-05-07T06:08:22;21.10;68.60
19050;DHT22;9657;45.940;12.840;2023-05-07T06:10:49;21.10;68.60
19050;DHT22;9657;45.940;12.840;2023-05-07T06:13:16;21.10;68.60
19050;DHT22;9657;45.940;12.840;2023-05-07T06:15:44;21.10;68.60
19050;DHT22;9657;45.940;12.840;2023-05-07T06:18:11;21.10;68.60
19050;DHT22;9657;45.940;12.840;2023-05-07T06:20:38;21.10;68.70
19050;DHT22;9657;45.940;12.840;2023-05-07T06:23:05;21.10;68.70
19050;DHT22;9657;45.940;12.840;2023-05-07T06:25:32;21.10;68.70
19050;DHT22;9657;45.940;12.840;2023-05-07T06:27:59;21.10;68.70
19050;DHT22;9657;45.940;12.840;2023-05-07T06:30:27;21.10;68.70
19050;DHT22;9657;45.940;12.840;2023-05-07T06:32:55;21.10;68.80
19050;DHT22;9657;45.940;12.840;2023-05-07T06:35:22;21.10;68.70
19050;DHT22;9657;45.940;12.840;2023-05-07T06:37:49;21.10;68.70
19050;DHT22;9657;45.940;12.840;2023-05-07T06:40:16;21.10;68.70
19050;DHT22;9657;45.940;12.840;2023-05-07T06:42:43;21.10;68.80
19050;DHT22;9657;45.940;12.840;2023-05-07T06:45:11;21.10;68.80
19050;DHT22;9657;45.940;12.840;2023-05-07T06:47:38;21.10;68.80
19050;DHT22;9657;45.940;12.840;2023-05-07T06:50:07;21.10;68.80
19050;DHT22;9657;45.940;12.840;2023-05-07T06:52:35;21.10;68.80
19050;DHT22;9657;45.940;12.840;2023-05-07T06:55:02;21.10;68.80
19050;DHT22;9657;45.940;12.840;2023-05-07T06:57:29;21.10;68.90
19050;DHT22;9657;45.940;12.840;2023-05-07T06:59:56;21.10;68.80
19050;DHT22;9657;45.940;12.840;2023-05-07T07:02:23;21.10;69.00
19050;DHT22;9657;45.940;12.840;2023-05-07T07:04:50;21.10;68.90
19050;DHT22;9657;45.940;12.840;2023-05-07T07:07:19;21.10;69.00
19050;DHT22;9657;45.940;12.840;2023-05-07T07:09:46;21.10;69.00
19050;DHT22;9657;45.940;12.840;2023-05-07T07:12:13;21.10;69.00
19050;DHT22;9657;45.940;12.840;2023-05-07T07:14:40;21.10;69.00
19050;DHT22;9657;45.940;12.840;2023-05-07T07:17:07;21.10;69.00
19050;DHT22;9657;45.940;12.840;2023-05-07T07:19:34;21.10;69.00
19050;DHT22;9657;45.940;12.840;2023-05-07T07:22:01;21.10;69.00
19050;DHT22;9657;45.940;12.840;2023-05-07T07:24:29;21.10;69.00
19050;DHT22;9657;45.940;12.840;2023-05-07T07:26:56;21.10;69.10
19050;DHT22;9657;45.940;12.840;2023-05-07T07:29:23;21.10;69.10
19050;DHT22;9657;45.940;12.840;2023-05-07T07:31:52;21.10;69.10
19050;DHT22;9657;45.940;12.840;2023-05-07T07:34:19;21.10;69.10
19050;DHT22;9657;45.940;12.840;2023-05-07T07:36:46;21.10;69.10
19050;DHT22;9657;45.940;12.840;2023-05-07T07:39:13;21.10;69.10
19050;DHT22;9657;45.940;12.840;2023-05-07T07:41:41;21.10;69.20
19050;DHT22;9657;45.940;12.840;2023-05-07T07:44:08;21.10;69.10
19050;DHT22;9657;45.940;12.840;2023-05-07T07:46:38;21.10;69.10
19050;DHT22;9657;45.940;12.840;2023-05-07T07:49:05;21.10;69.10
19050;DHT22;9657;45.940;12.840;2023-05-07T07:51:32;21.10;69.10
19050;DHT22;9657;45.940;12.840;2023-05-07T07:53:59;21.10;69.10
19050;DHT22;9657;45.940;12.840;2023-05-07T07:56:28;21.10;69.10
19050;DHT22;9657;45.940;12.840;2023-05-07T07:58:56;21.10;69.10
19050;DHT22;9657;45.940;12.840;2023-05-07T08:01:23;21.10;69.10
19050;DHT22;9657;45.940;12.840;2023-05-07T08:03:51;21.20;69.10
19050;DHT22;9657;45.940;12.840;2023-05-07T08:06:18;21.20;69.10
19050;DHT22;9657;45.940;12.840;2023-05-07T08:08:45;21.20;69.10
19050;DHT22;9657;45.940;12.840;2023-05-07T08:11:12;21.20;69.10
19050;DHT22;9657;45.940;12.840;2023-05-07T08:13:39;21.20;69.00
19050;DHT22;9657;45.940;12.840;2023-05-07T08:16:07;21.20;69.00
19050;DHT22;9657;45.940;12.840;2023-05-07T08:18:35;21.20;69.10
19050;DHT22;9657;45.940;12.840;2023-05-07T08:21:02;21.20;69.00
19050;DHT22;9657;45.940;12.840;2023-05-07T08:23:29;21.20;69.00
19050;DHT22;9657;45.940;12.840;2023-05-07T08:25:56;21.20;69.00
19050;DHT22;9657;45.940;12.840;2023-05-07T08:28:23;21.20;68.90
19050;DHT22;9657;45.940;12.840;2023-05-07T08:30:50;21.20;68.90
19050;DHT22;9657;45.940;12.840;2023-05-07T08:33:19;21.20;68.80
19050;DHT22;9657;45.940;12.840;2023-05-07T08:35:46;21.20;68.80
19050;DHT22;9657;45.940;12.840;2023-05-07T08:38:13;21.20;68.80
19050;DHT22;9657;45.940;12.840;2023-05-07T08:40:40;21.20;68.70
19050;DHT22;9657;45.940;12.840;2023-05-07T08:43:07;21.20;68.70
19050;DHT22;9657;45.940;12.840;2023-05-07T08:45:35;21.20;68.60
19050;DHT22;9657;45.940;12.840;2023-05-07T08:48:04;21.20;68.60
19050;DHT22;9657;45.940;12.840;2023-05-07T08:50:35;21.20;68.50
19050;DHT22;9657;45.940;12.840;2023-05-07T08:53:03;21.30;68.30
19050;DHT22;9657;45.940;12.840;2023-05-07T08:55:30;21.30;68.30
19050;DHT22;9657;45.940;12.840;2023-05-07T08:57:58;21.30;68.20
19050;DHT22;9657;45.940;12.840;2023-05-07T09:00:25;21.30;68.10
19050;DHT22;9657;45.940;12.840;2023-05-07T09:02:53;21.40;68.00
19050;DHT22;9657;45.940;12.840;2023-05-07T09:05:20;21.30;67.90
19050;DHT22;9657;45.940;12.840;2023-05-07T09:07:48;21.40;67.90
19050;DHT22;9657;45.940;12.840;2023-05-07T09:10:16;21.40;67.90
19050;DHT22;9657;45.940;12.840;2023-05-07T09:12:43;21.40;67.80
19050;DHT22;9657;45.940;12.840;2023-05-07T09:15:10;21.40;67.70
19050;DHT22;9657;45.940;12.840;2023-05-07T09:17:37;21.40;67.70
19050;DHT22;9657;45.940;12.840;2023-05-07T09:20:07;21.40;67.70
19050;DHT22;9657;45.940;12.840;2023-05-07T09:22:36;21.40;67.60
19050;DHT22;9657;45.940;12.840;2023-05-07T09:25:06;21.40;67.50
19050;DHT22;9657;45.940;12.840;2023-05-07T09:27:33;21.40;67.50
19050;DHT22;9657;45.940;12.840;2023-05-07T09:30:03;21.50;67.50
19050;DHT22;9657;45.940;12.840;2023-05-07T09:32:35;21.50;67.50
19050;DHT22;9657;45.940;12.840;2023-05-07T09:35:04;21.50;67.50
19050;DHT22;9657;45.940;12.840;2023-05-07T09:37:31;21.50;67.50
19050;DHT22;9657;45.940;12.840;2023-05-07T09:39:58;21.50;67.40
19050;DHT22;9657;45.940;12.840;2023-05-07T09:42:27;21.50;67.30
19050;DHT22;9657;45.940;12.840;2023-05-07T09:44:54;21.50;67.30
19050;DHT22;9657;45.940;12.840;2023-05-07T09:47:24;21.60;67.30
19050;DHT22;9657;45.940;12.840;2023-05-07T09:49:56;21.60;67.30
19050;DHT22;9657;45.940;12.840;2023-05-07T09:52:24;21.60;67.20
19050;DHT22;9657;45.940;12.840;2023-05-07T09:54:55;21.60;67.10
19050;DHT22;9657;45.940;12.840;2023-05-07T09:57:27;21.60;67.10
19050;DHT22;9657;45.940;12.840;2023-05-07T09:59:55;21.70;67.00
19050;DHT22;9657;45.940;12.840;2023-05-07T10:02:23;21.70;67.10
19050;DHT22;9657;45.940;12.840;2023-05-07T10:04:52;21.70;67.00
19050;DHT22;9657;45.940;12.840;2023-05-07T10:07:21;21.70;67.00
19050;DHT22;9657;45.940;12.840;2023-05-07T10:09:49;21.70;67.00
19050;DHT22;9657;45.940;12.840;2023-05-07T10:12:17;21.70;67.00
19050;DHT22;9657;45.940;12.840;2023-05-07T10:14:47;21.70;67.00
19050;DHT22;9657;45.940;12.840;2023-05-07T10:17:16;21.70;67.00
19050;DHT22;9657;45.940;12.840;2023-05-07T10:19:44;21.80;67.10
19050;DHT22;9657;45.940;12.840;2023-05-07T10:22:14;21.70;67.10
19050;DHT22;9657;45.940;12.840;2023-05-07T10:24:43;21.80;67.10
19050;DHT22;9657;45.940;12.840;2023-05-07T10:27:12;21.80;67.10
19050;DHT22;9657;45.940;12.840;2023-05-07T10:29:49;21.80;67.00
19050;DHT22;9657;45.940;12.840;2023-05-07T10:32:35;21.80;66.90
19050;DHT22;9657;45.940;12.840;2023-05-07T10:35:09;21.80;66.90
19050;DHT22;9657;45.940;12.840;2023-05-07T10:37:37;21.80;66.90
19050;DHT22;9657;45.940;12.840;2023-05-07T10:40:05;21.80;66.90
19050;DHT22;9657;45.940;12.840;2023-05-07T10:42:33;21.80;67.00
19050;DHT22;9657;45.940;12.840;2023-05-07T10:45:13;21.80;67.00
19050;DHT22;9657;45.940;12.840;2023-05-07T10:48:06;21.80;67.00
19050;DHT22;9657;45.940;12.840;2023-05-07T10:50:33;21.80;67.00
19050;DHT22;9657;45.940;12.840;2023-05-07T10:53:22;21.80;67.00
19050;DHT22;9657;45.940;12.840;2023-05-07T10:56:24;21.80;67.00
19050;DHT22;9657;45.940;12.840;2023-05-07T10:58:52;21.80;67.00
19050;DHT22;9657;45.940;12.840;2023-05-07T11:01:52;21.80;67.10
19050;DHT22;9657;45.940;12.840;2023-05-07T11:04:19;21.80;67.10
19050;DHT22;9657;45.940;12.840;2023-05-07T11:07:15;21.80;67.10
19050;DHT22;9657;45.940;12.840;2023-05-07T11:10:02;21.80;67.20
19050;DHT22;9657;45.940;12.840;2023-05-07T11:12:49;21.80;67.30
19050;DHT22;9657;45.940;12.840;2023-05-07T11:15:38;21.80;67.30
19050;DHT22;9657;45.940;12.840;2023-05-07T11:18:09;21.80;67.40
19050;DHT22;9657;45.940;12.840;2023-05-07T11:20:54;21.80;67.50
19050;DHT22;9657;45.940;12.840;2023-05-07T11:26:47;21.80;67.80
19050;DHT22;9657;45.940;12.840;2023-05-07T11:29:16;21.80;67.50
19050;DHT22;9657;45.940;12.840;2023-05-07T11:31:44;21.80;67.50
19050;DHT22;9657;45.940;12.840;2023-05-07T11:34:21;21.80;67.50
19050;DHT22;9657;45.940;12.840;2023-05-07T11:36:49;21.80;67.40
19050;DHT22;9657;45.940;12.840;2023-05-07T11:39:30;21.80;67.40
19050;DHT22;9657;45.940;12.840;2023-05-07T11:41:57;21.80;67.40
19050;DHT22;9657;45.940;12.840;2023-05-07T11:44:24;21.80;67.30
19050;DHT22;9657;45.940;12.840;2023-05-07T11:46:51;21.80;67.40
19050;DHT22;9657;45.940;12.840;2023-05-07T11:49:19;21.80;67.40
19050;DHT22;9657;45.940;12.840;2023-05-07T11:51:46;21.80;67.40
19050;DHT22;9657;45.940;12.840;2023-05-07T11:54:16;21.80;68.10
19050;DHT22;9657;45.940;12.840;2023-05-07T11:56:44;21.80;68.10
19050;DHT22;9657;45.940;12.840;2023-05-07T11:59:11;21.80;67.30
19050;DHT22;9657;45.940;12.840;2023-05-07T12:01:38;21.80;67.30
19050;DHT22;9657;45.940;12.840;2023-05-07T12:04:05;21.80;67.30
19050;DHT22;9657;45.940;12.840;2023-05-07T12:06:37;21.80;67.20
19050;DHT22;9657;45.940;12.840;2023-05-07T12:09:04;21.80;67.10
19050;DHT22;9657;45.940;12.840;2023-05-07T12:11:37;21.80;67.10
19050;DHT22;9657;45.940;12.840;2023-05-07T12:14:05;21.80;67.10
19050;DHT22;9657;45.940;12.840;2023-05-07T12:16:32;21.90;67.30
19050;DHT22;9657;45.940;12.840;2023-05-07T12:19:00;21.90;67.20
19050;DHT22;9657;45.940;12.840;2023-05-07T12:21:27;21.90;67.10
19050;DHT22;9657;45.940;12.840;2023-05-07T12:23:56;21.90;67.20
19050;DHT22;9657;45.940;12.840;2023-05-07T12:26:23;21.90;67.10
19050;DHT22;9657;45.940;12.840;2023-05-07T12:28:50;21.90;67.10
19050;DHT22;9657;45.940;12.840;2023-05-07T12:31:17;21.90;67.10
19050;DHT22;9657;45.940;12.840;2023-05-07T12:33:45;21.90;67.10
19050;DHT22;9657;45.940;12.840;2023-05-07T12:36:13;21.90;67.10
19050;DHT22;9657;45.940;12.840;2023-05-07T12:38:40;22.00;67.10
19050;DHT22;9657;45.940;12.840;2023-05-07T12:41:10;21.90;67.00
19050;DHT22;9657;45.940;12.840;2023-05-07T12:43:38;22.00;67.10
19050;DHT22;9657;45.940;12.840;2023-05-07T12:46:06;21.90;67.00
19050;DHT22;9657;45.940;12.840;2023-05-07T12:48:35;21.90;67.00
19050;DHT22;9657;45.940;12.840;2023-05-07T12:51:03;22.00;67.10
19050;DHT22;9657;45.940;12.840;2023-05-07T12:53:31;22.00;67.10
19050;DHT22;9657;45.940;12.840;2023-05-07T12:55:59;22.00;67.00
19050;DHT22;9657;45.940;12.840;2023-05-07T12:58:29;22.00;67.00
19050;DHT22;9657;45.940;12.840;2023-05-07T13:00:58;22.00;67.00
19050;DHT22;9657;45.940;12.840;2023-05-07T13:03:27;22.00;67.00
19050;DHT22;9657;45.940;12.840;2023-05-07T13:05:55;22.00;67.00
19050;DHT22;9657;45.940;12.840;2023-05-07T13:08:27;22.10;67.10
19050;DHT22;9657;45.940;12.840;2023-05-07T13:10:55;22.00;67.00
19050;DHT22;9657;45.940;12.840;2023-05-07T13:13:22;22.00;66.90
19050;DHT22;9657;45.940;12.840;2023-05-07T13:15:51;22.00;67.00
19050;DHT22;9657;45.940;12.840;2023-05-07T13:18:18;22.00;67.00
19050;DHT22;9657;45.940;12.840;2023-05-07T13:20:45;22.10;67.20
19050;DHT22;9657;45.940;12.840;2023-05-07T13:23:12;22.10;67.10
19050;DHT22;9657;45.940;12.840;2023-05-07T13:25:39;22.10;68.00
19050;DHT22;9657;45.940;12.840;2023-05-07T13:28:06;22.10;67.20
19050;DHT22;9657;45.940;12.840;2023-05-07T13:30:33;22.10;67.10
19050;DHT22;9657;45.940;12.840;2023-05-07T13:33:01;22.10;67.10
19050;DHT22;9657;45.940;12.840;2023-05-07T13:35:29;22.10;67.10
19050;DHT22;9657;45.940;12.840;2023-05-07T13:37:56;22.10;67.10
19050;DHT22;9657;45.940;12.840;2023-05-07T13:40:23;22.10;67.10
19050;DHT22;9657;45.940;12.840;2023-05-07T13:42:50;22.20;67.10
19050;DHT22;9657;45.940;12.840;2023-05-07T13:45:18;22.10;67.00
19050;DHT22;9657;45.940;12.840;2023-05-07T13:47:46;22.20;67.10
19050;DHT22;9657;45.940;12.840;2023-05-07T13:50:16;22.10;67.10
19050;DHT22;9657;45.940;12.840;2023-05-07T13:52:44;22.10;67.10
19050;DHT22;9657;45.940;12.840;2023-05-07T13:55:16;22.20;67.10
19050;DHT22;9657;45.940;12.840;2023-05-07T13:57:43;22.20;67.20
19050;DHT22;9657;45.940;12.840;2023-05-07T14:00:11;22.20;67.10
19050;DHT22;9657;45.940;12.840;2023-05-07T14:02:39;22.20;67.20
19050;DHT22;9657;45.940;12.840;2023-05-07T14:05:06;22.20;67.30
19050;DHT22;9657;45.940;12.840;2023-05-07T14:07:36;22.20;67.30
19050;DHT22;9657;45.940;12.840;2023-05-07T14:10:03;22.20;67.40
19050;DHT22;9657;45.940;12.840;2023-05-07T14:12:31;22.20;67.50
19050;DHT22;9657;45.940;12.840;2023-05-07T14:14:59;22.20;67.50
19050;DHT22;9657;45.940;12.840;2023-05-07T14:17:26;22.20;67.30
19050;DHT22;9657;45.940;12.840;2023-05-07T14:19:53;22.20;67.30
19050;DHT22;9657;45.940;12.840;2023-05-07T14:22:21;22.20;68.20
19050;DHT22;9657;45.940;12.840;2023-05-07T14:24:50;22.20;67.30
19050;DHT22;9657;45.940;12.840;2023-05-07T14:27:17;22.20;67.30
19050;DHT22;9657;45.940;12.840;2023-05-07T14:29:44;22.20;67.30
19050;DHT22;9657;45.940;12.840;2023-05-07T14:32:16;22.20;67.30
19050;DHT22;9657;45.940;12.840;2023-05-07T14:34:43;22.30;67.30
19050;DHT22;9657;45.940;12.840;2023-05-07T14:37:10;22.20;67.20
19050;DHT22;9657;45.940;12.840;2023-05-07T14:39:38;22.30;67.30
19050;DHT22;9657;45.940;12.840;2023-05-07T14:42:06;22.20;67.40
19050;DHT22;9657;45.940;12.840;2023-05-07T14:44:34;22.20;67.30
19050;DHT22;9657;45.940;12.840;2023-05-07T14:47:01;22.30;67.50
19050;DHT22;9657;45.940;12.840;2023-05-07T14:49:28;22.30;67.40
19050;DHT22;9657;45.940;12.840;2023-05-07T14:51:57;22.20;67.30
19050;DHT22;9657;45.940;12.840;2023-05-07T14:54:26;22.30;67.40
19050;DHT22;9657;45.940;12.840;2023-05-07T14:56:53;22.30;67.30
19050;DHT22;9657;45.940;12.840;2023-05-07T14:59:21;22.20;67.30
19050;DHT22;9657;45.940;12.840;2023-05-07T15:01:50;22.30;67.30
19050;DHT22;9657;45.940;12.840;2023-05-07T15:04:17;22.30;67.30
19050;DHT22;9657;45.940;12.840;2023-05-07T15:06:45;22.30;67.50
19050;DHT22;9657;45.940;12.840;2023-05-07T15:09:12;22.30;68.20
19050;DHT22;9657;45.940;12.840;2023-05-07T15:11:40;22.30;67.50
19050;DHT22;9657;45.940;12.840;2023-05-07T15:14:07;22.30;67.50
19050;DHT22;9657;45.940;12.840;2023-05-07T15:16:35;22.30;67.50
19050;DHT22;9657;45.940;12.840;2023-05-07T15:19:02;22.30;67.50
19050;DHT22;9657;45.940;12.840;2023-05-07T15:21:29;22.30;67.60
19050;DHT22;9657;45.940;12.840;2023-05-07T15:23:59;22.30;67.60
19050;DHT22;9657;45.940;12.840;2023-05-07T15:26:27;22.30;67.50
19050;DHT22;9657;45.940;12.840;2023-05-07T15:28:54;22.30;67.60
19050;DHT22;9657;45.940;12.840;2023-05-07T15:31:22;22.30;67.60
19050;DHT22;9657;45.940;12.840;2023-05-07T15:33:52;22.30;67.60
19050;DHT22;9657;45.940;12.840;2023-05-07T15:36:20;22.30;67.60
19050;DHT22;9657;45.940;12.840;2023-05-07T15:38:47;22.30;67.60
19050;DHT22;9657;45.940;12.840;2023-05-07T15:41:14;22.30;67.60
19050;DHT22;9657;45.940;12.840;2023-05-07T15:43:44;22.30;67.60